createdAt,value
2017-08-07T00:01:56.435Z,14.20
2017-08-07T00:04:22.857Z,14.10
2017-08-07T00:06:49.245Z,14.10
2017-08-07T00:09:15.655Z,14.00
2017-08-07T00:11:42.063Z,14.00
2017-08-07T00:14:08.488Z,14.00
2017-08-07T00:16:34.892Z,14.00
2017-08-07T00:19:01.661Z,13.90
2017-08-07T00:21:28.064Z,13.90
2017-08-07T00:23:54.548Z,13.90
2017-08-07T00:26:20.983Z,13.80
2017-08-07T00:28:47.526Z,13.80
2017-08-07T00:31:13.877Z,13.80
2017-08-07T00:33:40.309Z,13.80
2017-08-07T00:36:07.419Z,13.70
2017-08-07T00:38:33.815Z,13.70
2017-08-07T00:41:00.472Z,13.70
2017-08-07T00:43:26.874Z,13.70
2017-08-07T00:45:53.248Z,13.70
2017-08-07T00:48:19.623Z,13.70
2017-08-07T00:50:46.699Z,13.70
2017-08-07T00:53:13.078Z,13.70
2017-08-07T00:55:39.425Z,13.70
2017-08-07T00:58:05.761Z,13.60
2017-08-07T01:00:32.116Z,13.60
2017-08-07T01:02:58.843Z,13.60
2017-08-07T01:05:25.237Z,13.60
2017-08-07T01:07:51.649Z,13.60
2017-08-07T01:10:18.049Z,13.60
2017-08-07T01:12:44.419Z,13.60
2017-08-07T01:15:16.738Z,13.60
2017-08-07T01:17:43.077Z,13.50
2017-08-07T01:20:09.428Z,13.50
2017-08-07T01:22:35.783Z,13.50
2017-08-07T01:25:02.194Z,13.50
2017-08-07T01:27:28.603Z,13.50
2017-08-07T01:29:54.980Z,13.50
2017-08-07T01:32:21.369Z,13.50
2017-08-07T01:34:47.746Z,13.50
2017-08-07T01:37:14.102Z,13.40
2017-08-07T01:39:40.491Z,13.40
2017-08-07T01:42:07.022Z,13.40
2017-08-07T01:44:33.826Z,13.50
2017-08-07T01:47:00.659Z,13.50
2017-08-07T01:49:27.050Z,13.50
2017-08-07T01:51:53.409Z,13.60
2017-08-07T01:54:19.793Z,13.60
2017-08-07T01:56:46.148Z,13.60
2017-08-07T01:59:12.567Z,13.70
2017-08-07T02:01:39.005Z,13.70
2017-08-07T02:04:05.359Z,13.70
2017-08-07T02:06:32.449Z,13.80
2017-08-07T02:08:59.107Z,13.70
2017-08-07T02:11:25.502Z,13.80
2017-08-07T02:13:51.916Z,13.70
2017-08-07T02:16:18.304Z,13.70
2017-08-07T02:18:44.687Z,13.70
2017-08-07T02:21:11.062Z,13.80
2017-08-07T02:23:37.429Z,13.80
2017-08-07T02:26:04.117Z,13.80
2017-08-07T02:28:30.535Z,13.80
2017-08-07T02:30:56.867Z,13.80
2017-08-07T02:33:23.265Z,13.80
2017-08-07T02:35:49.603Z,13.80
2017-08-07T02:38:16.007Z,13.70
2017-08-07T02:40:43.099Z,13.60
2017-08-07T02:43:09.510Z,13.60
2017-08-07T02:45:35.890Z,13.50
2017-08-07T02:48:02.282Z,13.50
2017-08-07T02:50:28.647Z,13.50
2017-08-07T02:55:28.349Z,13.50
2017-08-07T02:57:54.713Z,13.40
2017-08-07T03:00:21.082Z,13.40
2017-08-07T03:02:47.451Z,13.40
2017-08-07T03:05:13.821Z,13.40
2017-08-07T03:07:40.198Z,13.40
2017-08-07T03:10:06.618Z,13.40
2017-08-07T03:12:32.999Z,13.40
2017-08-07T03:14:59.718Z,13.40
2017-08-07T03:17:26.087Z,13.40
2017-08-07T03:19:52.412Z,13.40
2017-08-07T03:22:18.796Z,13.40
2017-08-07T03:24:45.151Z,13.30
2017-08-07T03:27:11.521Z,13.30
2017-08-07T03:29:37.893Z,13.30
2017-08-07T03:32:04.281Z,13.30
2017-08-07T03:34:30.685Z,13.30
2017-08-07T03:36:57.427Z,13.30
2017-08-07T03:39:23.779Z,13.30
2017-08-07T03:41:50.202Z,13.30
2017-08-07T03:44:16.832Z,13.30
2017-08-07T03:46:43.249Z,13.20
2017-08-07T03:49:09.731Z,13.20
2017-08-07T03:51:37.566Z,13.20
2017-08-07T03:54:04.295Z,13.20
2017-08-07T03:56:30.617Z,13.20
2017-08-07T03:58:57.016Z,13.20
2017-08-07T04:01:23.347Z,13.20
2017-08-07T04:03:49.688Z,13.20
2017-08-07T04:06:16.798Z,13.20
2017-08-07T04:08:43.151Z,13.20
2017-08-07T04:11:09.548Z,13.20
2017-08-07T04:13:35.905Z,13.30
2017-08-07T04:16:02.270Z,13.30
2017-08-07T04:18:28.650Z,13.30
2017-08-07T04:20:55.343Z,13.30
2017-08-07T04:23:22.945Z,13.30
2017-08-07T04:25:49.361Z,13.40
2017-08-07T04:28:15.786Z,13.40
2017-08-07T04:30:42.521Z,13.50
2017-08-07T04:33:09.053Z,13.50
2017-08-07T04:35:35.418Z,13.60
2017-08-07T04:38:01.810Z,13.70
2017-08-07T04:40:28.213Z,13.70
2017-08-07T04:42:55.343Z,13.90
2017-08-07T04:45:21.700Z,13.90
2017-08-07T04:47:48.102Z,14.00
2017-08-07T04:50:14.485Z,14.00
2017-08-07T04:52:40.845Z,14.10
2017-08-07T04:55:07.190Z,14.10
2017-08-07T04:57:33.536Z,14.20
2017-08-07T05:00:00.977Z,14.40
2017-08-07T05:02:27.378Z,14.30
2017-08-07T05:04:53.737Z,14.40
2017-08-07T05:07:20.121Z,14.50
2017-08-07T05:09:46.498Z,14.60
2017-08-07T05:12:12.818Z,14.60
2017-08-07T05:14:39.255Z,14.70
2017-08-07T05:17:05.903Z,14.80
2017-08-07T05:19:32.278Z,14.90
2017-08-07T05:21:58.672Z,15.00
2017-08-07T05:24:26.048Z,15.20
2017-08-07T05:26:53.394Z,15.20
2017-08-07T05:29:20.053Z,15.20
2017-08-07T05:31:46.737Z,15.30
2017-08-07T05:34:13.214Z,15.30
2017-08-07T05:36:39.691Z,15.40
2017-08-07T05:39:06.445Z,15.40
2017-08-07T05:41:33.588Z,15.40
2017-08-07T05:44:00.732Z,15.40
2017-08-07T05:46:27.121Z,15.40
2017-08-07T05:48:53.513Z,15.30
2017-08-07T05:51:19.891Z,15.30
2017-08-07T05:53:46.248Z,15.30
2017-08-07T05:56:12.734Z,15.40
2017-08-07T05:58:39.091Z,15.40
2017-08-07T06:01:05.498Z,15.50
2017-08-07T06:03:31.887Z,15.60
2017-08-07T06:05:59.011Z,15.80
2017-08-07T06:08:25.400Z,15.80
2017-08-07T06:10:51.733Z,15.90
2017-08-07T06:13:18.131Z,15.90
2017-08-07T06:15:45.311Z,16.00
2017-08-07T06:18:12.034Z,16.00
2017-08-07T06:20:38.372Z,16.10
2017-08-07T06:23:04.770Z,16.10
2017-08-07T06:25:31.906Z,16.20
2017-08-07T06:27:58.281Z,16.20
2017-08-07T06:30:24.645Z,16.30
2017-08-07T06:32:51.031Z,16.30
2017-08-07T06:35:17.396Z,16.30
2017-08-07T06:37:43.842Z,16.40
2017-08-07T06:40:16.233Z,16.60
2017-08-07T06:42:43.343Z,17.10
2017-08-07T06:45:09.695Z,17.00
2017-08-07T06:47:36.462Z,17.30
2017-08-07T06:50:03.587Z,17.90
2017-08-07T06:52:29.912Z,17.80
2017-08-07T06:54:56.312Z,18.00
2017-08-07T06:57:22.687Z,18.20
2017-08-07T06:59:49.162Z,18.20
2017-08-07T07:02:15.544Z,18.20
2017-08-07T07:04:42.720Z,18.10
2017-08-07T07:07:09.038Z,18.10
2017-08-07T07:09:36.459Z,18.20
2017-08-07T07:12:02.814Z,18.20
2017-08-07T07:14:29.134Z,18.20
2017-08-07T07:16:55.496Z,18.20
2017-08-07T07:19:21.877Z,18.00
2017-08-07T07:21:48.235Z,18.00
2017-08-07T07:24:15.343Z,18.00
2017-08-07T07:26:41.829Z,18.00
2017-08-07T07:29:08.245Z,18.00
2017-08-07T07:31:34.967Z,18.00
2017-08-07T07:34:01.340Z,18.20
2017-08-07T07:36:27.733Z,18.30
2017-08-07T07:38:54.189Z,18.40
2017-08-07T07:41:20.577Z,18.40
2017-08-07T07:43:46.964Z,18.50
2017-08-07T07:46:13.453Z,18.50
2017-08-07T07:48:40.187Z,18.60
2017-08-07T07:51:06.627Z,18.80
2017-08-07T07:53:33.942Z,18.80
2017-08-07T07:56:00.327Z,18.80
2017-08-07T07:58:26.688Z,18.80
2017-08-07T08:00:53.283Z,18.80
2017-08-07T08:03:19.815Z,18.90
2017-08-07T08:05:46.246Z,18.80
2017-08-07T08:08:12.700Z,18.80
2017-08-07T08:10:39.067Z,18.80
2017-08-07T08:13:05.447Z,18.80
2017-08-07T08:15:33.008Z,19.20
2017-08-07T08:17:59.444Z,19.10
2017-08-07T08:20:25.869Z,19.30
2017-08-07T08:22:52.286Z,19.40
2017-08-07T08:25:19.444Z,19.70
2017-08-07T08:27:46.586Z,19.80
2017-08-07T08:30:13.686Z,19.90
2017-08-07T08:32:40.356Z,19.90
2017-08-07T08:35:06.703Z,20.20
2017-08-07T08:37:33.806Z,20.30
2017-08-07T08:40:00.193Z,20.30
2017-08-07T08:44:59.601Z,20.10
2017-08-07T08:47:25.942Z,20.00
2017-08-07T08:49:52.322Z,20.10
2017-08-07T08:52:18.712Z,20.10
2017-08-07T08:54:45.360Z,20.10
2017-08-07T08:57:24.982Z,20.10
2017-08-07T08:59:51.808Z,20.20
2017-08-07T09:02:18.160Z,20.30
2017-08-07T09:04:44.921Z,20.40
2017-08-07T09:07:11.347Z,20.60
2017-08-07T09:09:37.794Z,20.60
2017-08-07T09:12:04.207Z,20.80
2017-08-07T09:14:30.594Z,20.90
2017-08-07T09:16:57.076Z,21.00
2017-08-07T09:19:23.511Z,21.10
2017-08-07T09:21:57.275Z,21.10
2017-08-07T09:24:23.732Z,21.10
2017-08-07T09:26:50.123Z,21.10
2017-08-07T09:29:16.547Z,21.10
2017-08-07T09:31:43.042Z,21.10
2017-08-07T09:34:09.430Z,21.10
2017-08-07T09:36:35.819Z,21.10
2017-08-07T09:39:02.596Z,21.10
2017-08-07T09:41:28.992Z,21.10
2017-08-07T09:43:55.399Z,21.20
2017-08-07T09:46:21.801Z,21.20
2017-08-07T09:48:48.168Z,21.10
2017-08-07T09:51:14.565Z,21.10
2017-08-07T09:53:40.988Z,21.10
2017-08-07T09:56:07.443Z,21.10
2017-08-07T09:58:33.803Z,21.10
2017-08-07T10:01:01.102Z,21.30
2017-08-07T10:03:27.547Z,21.40
2017-08-07T10:05:53.902Z,21.50
2017-08-07T10:08:20.279Z,21.60
2017-08-07T10:10:46.628Z,21.80
2017-08-07T10:13:13.034Z,22.20
2017-08-07T10:15:39.375Z,22.30
2017-08-07T10:18:05.758Z,22.60
2017-08-07T10:20:32.143Z,22.80
2017-08-07T10:22:58.838Z,23.10
2017-08-07T10:25:25.206Z,23.20
2017-08-07T10:27:51.502Z,23.40
2017-08-07T10:30:17.864Z,23.70
2017-08-07T10:32:44.211Z,23.90
2017-08-07T10:35:10.574Z,23.80
2017-08-07T10:37:36.943Z,23.80
2017-08-07T10:40:04.074Z,24.00
2017-08-07T10:42:30.465Z,24.00
2017-08-07T10:44:57.900Z,24.40
2017-08-07T10:47:24.290Z,24.40
2017-08-07T10:49:50.654Z,24.40
2017-08-07T10:52:17.031Z,24.70
2017-08-07T10:54:43.375Z,25.10
2017-08-07T10:57:09.736Z,25.30
2017-08-07T10:59:36.165Z,25.50
2017-08-07T11:02:02.675Z,25.70
2017-08-07T11:04:29.094Z,25.70
2017-08-07T11:06:55.832Z,25.80
2017-08-07T11:09:23.003Z,26.10
2017-08-07T11:11:50.619Z,26.20
2017-08-07T11:14:17.114Z,26.10
2017-08-07T11:16:43.551Z,26.40
2017-08-07T11:19:09.965Z,26.60
2017-08-07T11:21:36.322Z,26.50
2017-08-07T11:24:03.153Z,26.40
2017-08-07T11:26:29.570Z,26.60
2017-08-07T11:28:56.060Z,26.80
2017-08-07T11:31:23.177Z,27.30
2017-08-07T11:33:49.904Z,27.20
2017-08-07T11:36:16.374Z,27.50
2017-08-07T11:38:43.550Z,27.90
2017-08-07T11:41:09.996Z,27.90
2017-08-07T11:43:36.386Z,28.00
2017-08-07T11:46:02.771Z,28.30
2017-08-07T11:48:29.219Z,28.40
2017-08-07T11:50:56.090Z,28.50
2017-08-07T11:53:23.179Z,28.40
2017-08-07T11:55:51.201Z,28.40
2017-08-07T11:58:19.846Z,28.50
2017-08-07T12:00:48.161Z,28.70
2017-08-07T12:03:16.316Z,29.10
2017-08-07T12:05:43.033Z,29.10
2017-08-07T12:08:09.548Z,29.30
2017-08-07T12:10:35.923Z,29.30
2017-08-07T12:13:02.733Z,29.50
2017-08-07T12:15:30.102Z,29.50
2017-08-07T12:17:57.006Z,29.60
2017-08-07T12:20:23.480Z,29.80
2017-08-07T12:22:51.369Z,29.00
2017-08-07T12:25:17.805Z,29.00
2017-08-07T12:27:44.208Z,28.70
2017-08-07T12:30:10.590Z,28.80
2017-08-07T12:32:37.736Z,29.10
2017-08-07T12:35:04.146Z,29.10
2017-08-07T12:37:30.512Z,29.40
2017-08-07T12:39:57.247Z,29.60
2017-08-07T12:42:23.637Z,29.70
2017-08-07T12:44:50.010Z,29.90
2017-08-07T12:47:16.425Z,30.20
2017-08-07T12:49:42.823Z,30.40
2017-08-07T12:52:09.195Z,30.50
2017-08-07T12:54:35.556Z,30.60
2017-08-07T12:57:02.435Z,30.80
2017-08-07T12:59:28.886Z,31.00
2017-08-07T13:01:55.976Z,31.20
2017-08-07T13:04:22.343Z,31.20
2017-08-07T13:06:48.692Z,31.30
2017-08-07T13:09:15.164Z,31.40
2017-08-07T13:11:41.537Z,31.40
2017-08-07T13:14:07.957Z,31.10
2017-08-07T13:16:34.299Z,30.90
2017-08-07T13:19:00.673Z,31.00
2017-08-07T13:21:27.091Z,31.30
2017-08-07T13:23:53.894Z,31.50
2017-08-07T13:26:20.305Z,31.60
2017-08-07T13:28:46.697Z,31.70
2017-08-07T13:31:13.118Z,31.80
2017-08-07T13:33:39.492Z,31.70
2017-08-07T13:36:05.945Z,31.20
2017-08-07T13:38:32.289Z,30.70
2017-08-07T13:40:59.433Z,30.30
2017-08-07T13:43:26.570Z,30.30
2017-08-07T13:45:53.275Z,30.30
2017-08-07T13:48:20.190Z,30.50
2017-08-07T13:50:46.548Z,30.60
2017-08-07T13:53:12.933Z,30.70
2017-08-07T13:55:40.099Z,30.80
2017-08-07T13:58:06.498Z,30.70
2017-08-07T14:00:33.029Z,30.80
2017-08-07T14:02:59.398Z,30.80
2017-08-07T14:05:25.810Z,30.90
2017-08-07T14:07:52.715Z,31.10
2017-08-07T14:10:19.165Z,31.00
2017-08-07T14:12:45.734Z,30.90
2017-08-07T14:15:12.204Z,30.80
2017-08-07T14:17:38.534Z,30.90
2017-08-07T14:20:05.029Z,31.00
2017-08-07T14:22:31.424Z,31.10
2017-08-07T14:24:57.814Z,31.10
2017-08-07T14:27:24.294Z,31.10
2017-08-07T14:29:51.621Z,31.20
2017-08-07T14:32:19.332Z,31.20
2017-08-07T14:34:46.236Z,31.30
2017-08-07T14:37:12.716Z,31.40
2017-08-07T14:39:39.137Z,31.70
2017-08-07T14:42:05.749Z,32.00
2017-08-07T14:44:32.221Z,32.00
2017-08-07T14:46:58.668Z,31.90
2017-08-07T14:49:25.121Z,31.90
2017-08-07T14:51:51.567Z,31.80
2017-08-07T14:54:18.702Z,31.50
2017-08-07T14:56:45.458Z,31.50
2017-08-07T14:59:12.659Z,31.30
2017-08-07T15:01:39.031Z,31.30
2017-08-07T15:04:05.420Z,31.30
2017-08-07T15:06:31.841Z,31.30
2017-08-07T15:08:58.238Z,31.50
2017-08-07T15:11:24.694Z,31.70
2017-08-07T15:13:51.437Z,31.70
2017-08-07T15:16:17.974Z,31.70
2017-08-07T15:18:44.436Z,31.50
2017-08-07T15:21:10.837Z,31.40
2017-08-07T15:23:37.238Z,31.30
2017-08-07T15:26:03.705Z,31.40
2017-08-07T15:28:30.090Z,31.50
2017-08-07T15:30:56.491Z,31.40
2017-08-07T15:33:22.871Z,31.30
2017-08-07T15:35:49.524Z,31.20
2017-08-07T15:38:15.930Z,31.00
2017-08-07T15:40:43.097Z,31.10
2017-08-07T15:43:09.507Z,31.10
2017-08-07T15:45:36.615Z,30.50
2017-08-07T15:48:03.098Z,30.50
2017-08-07T15:50:30.273Z,30.10
2017-08-07T15:52:56.767Z,30.10
2017-08-07T15:55:23.171Z,30.10
2017-08-07T15:57:49.590Z,30.20
2017-08-07T16:00:17.024Z,30.30
2017-08-07T16:02:43.710Z,30.30
2017-08-07T16:05:10.088Z,30.40
2017-08-07T16:07:36.655Z,30.40
2017-08-07T16:10:03.089Z,30.50
2017-08-07T16:12:29.473Z,30.40
2017-08-07T16:14:55.883Z,30.30
2017-08-07T16:17:22.282Z,30.20
2017-08-07T16:19:49.044Z,30.10
2017-08-07T16:22:15.443Z,30.00
2017-08-07T16:24:41.848Z,29.60
2017-08-07T16:27:08.219Z,29.40
2017-08-07T16:29:40.770Z,29.30
2017-08-07T16:32:07.154Z,29.10
2017-08-07T16:34:33.572Z,28.90
2017-08-07T16:37:00.800Z,28.70
2017-08-07T16:39:27.525Z,28.70
2017-08-07T16:41:54.455Z,28.80
2017-08-07T16:44:20.954Z,28.90
2017-08-07T16:46:47.433Z,29.00
2017-08-07T16:49:13.950Z,29.00
2017-08-07T16:51:40.385Z,29.00
2017-08-07T16:54:06.787Z,29.00
2017-08-07T16:56:33.213Z,28.80
2017-08-07T16:58:59.685Z,28.60
2017-08-07T17:01:26.077Z,28.40
2017-08-07T17:03:52.813Z,28.30
2017-08-07T17:06:19.219Z,28.10
2017-08-07T17:08:45.549Z,28.10
2017-08-07T17:11:12.658Z,27.90
2017-08-07T17:13:39.065Z,27.90
2017-08-07T17:16:05.470Z,27.70
2017-08-07T17:18:32.660Z,27.40
2017-08-07T17:20:59.461Z,27.30
2017-08-07T17:23:25.947Z,27.20
2017-08-07T17:25:52.472Z,27.00
2017-08-07T17:28:19.026Z,26.80
2017-08-07T17:30:46.281Z,26.10
2017-08-07T17:33:12.776Z,26.10
2017-08-07T17:35:39.182Z,25.70
2017-08-07T17:38:05.707Z,25.40
2017-08-07T17:40:32.096Z,25.10
2017-08-07T17:42:58.865Z,24.80
2017-08-07T17:45:25.268Z,24.50
2017-08-07T17:47:51.692Z,24.30
2017-08-07T17:50:18.128Z,24.10
2017-08-07T17:52:44.960Z,24.00
2017-08-07T17:55:11.556Z,23.80
2017-08-07T17:57:38.024Z,23.70
2017-08-07T18:00:28.807Z,23.60
2017-08-07T18:02:55.210Z,23.50
2017-08-07T18:05:22.789Z,23.30
2017-08-07T18:07:49.300Z,23.20
2017-08-07T18:10:15.857Z,23.20
2017-08-07T18:12:43.148Z,22.90
2017-08-07T18:15:09.592Z,22.90
2017-08-07T18:17:36.105Z,22.80
2017-08-07T18:20:03.226Z,22.50
2017-08-07T18:22:29.682Z,22.50
2017-08-07T18:24:56.059Z,22.40
2017-08-07T18:27:22.520Z,22.40
2017-08-07T18:29:48.941Z,22.20
2017-08-07T18:32:15.950Z,22.10
2017-08-07T18:34:42.438Z,22.10
2017-08-07T18:37:08.917Z,21.90
2017-08-07T18:39:35.361Z,21.80
2017-08-07T18:42:01.735Z,21.80
2017-08-07T18:44:28.195Z,21.70
2017-08-07T18:46:54.597Z,21.60
2017-08-07T18:49:21.057Z,21.50
2017-08-07T18:51:47.544Z,21.40
2017-08-07T18:54:13.949Z,21.30
2017-08-07T18:56:40.448Z,21.30
2017-08-07T18:59:06.955Z,21.10
2017-08-07T19:01:33.439Z,21.10
2017-08-07T19:03:59.897Z,20.90
2017-08-07T19:06:26.410Z,20.80
2017-08-07T19:08:52.884Z,20.70
2017-08-07T19:11:19.601Z,20.60
2017-08-07T19:13:46.072Z,20.50
2017-08-07T19:16:12.520Z,20.50
2017-08-07T19:18:39.583Z,20.40
2017-08-07T19:21:07.918Z,20.30
2017-08-07T19:23:34.446Z,20.30
2017-08-07T19:26:00.915Z,20.10
2017-08-07T19:28:28.180Z,20.00
2017-08-07T19:30:54.677Z,20.00
2017-08-07T19:33:21.563Z,19.90
2017-08-07T19:35:48.001Z,19.80
2017-08-07T19:38:14.547Z,19.60
2017-08-07T19:40:41.001Z,19.50
2017-08-07T19:43:07.422Z,19.40
2017-08-07T19:45:33.971Z,19.30
2017-08-07T19:48:00.426Z,19.20
2017-08-07T19:50:26.879Z,19.10
2017-08-07T19:52:53.361Z,19.00
2017-08-07T19:55:20.283Z,19.00
2017-08-07T19:57:46.733Z,18.90
2017-08-07T20:00:13.355Z,18.80
2017-08-07T20:02:39.807Z,18.80
2017-08-07T20:05:06.267Z,18.70
2017-08-07T20:07:33.088Z,18.70
2017-08-07T20:09:59.533Z,18.60
2017-08-07T20:12:26.800Z,18.50
2017-08-07T20:14:53.276Z,18.40
2017-08-07T20:17:19.979Z,18.40
2017-08-07T20:19:46.421Z,18.40
2017-08-07T20:22:12.928Z,18.40
2017-08-07T20:24:39.382Z,18.40
2017-08-07T20:27:05.815Z,18.30
2017-08-07T20:29:32.224Z,18.30
2017-08-07T20:31:59.408Z,18.20
2017-08-07T20:37:22.431Z,18.10
2017-08-07T20:39:49.057Z,18.00
2017-08-07T20:42:15.518Z,17.90
2017-08-07T20:44:42.984Z,17.80
2017-08-07T20:47:10.109Z,17.70
2017-08-07T20:49:36.573Z,17.70
2017-08-07T20:52:03.224Z,17.70
2017-08-07T20:54:29.655Z,17.60
2017-08-07T20:56:56.050Z,17.60
2017-08-07T20:59:23.274Z,17.50
2017-08-07T21:01:49.836Z,17.50
2017-08-07T21:04:16.964Z,17.50
2017-08-07T21:06:43.430Z,17.50
2017-08-07T21:09:09.944Z,17.50
2017-08-07T21:11:37.359Z,17.40
2017-08-07T21:14:03.745Z,17.40
2017-08-07T21:16:30.192Z,17.40
2017-08-07T21:18:56.674Z,17.30
2017-08-07T21:21:23.063Z,17.30
2017-08-07T21:23:49.498Z,17.20
2017-08-07T21:26:15.945Z,17.20
2017-08-07T21:28:42.638Z,17.20
2017-08-07T21:31:09.023Z,17.10
2017-08-07T21:33:35.461Z,17.10
2017-08-07T21:36:01.901Z,17.10
2017-08-07T21:38:28.316Z,17.00
2017-08-07T21:40:54.788Z,17.00
2017-08-07T21:43:28.115Z,16.90
2017-08-07T21:45:54.860Z,16.90
2017-08-07T21:48:21.253Z,16.90
2017-08-07T21:50:47.651Z,16.80
2017-08-07T21:53:14.147Z,16.70
2017-08-07T21:55:40.556Z,16.60
2017-08-07T21:58:06.979Z,16.60
2017-08-07T22:00:33.464Z,16.60
2017-08-07T22:02:59.885Z,16.60
2017-08-07T22:05:26.254Z,16.50
2017-08-07T22:07:53.212Z,16.50
2017-08-07T22:10:19.659Z,16.50
2017-08-07T22:12:46.085Z,16.50
2017-08-07T22:15:12.505Z,16.40
2017-08-07T22:17:38.866Z,16.40
2017-08-07T22:20:13.183Z,16.30
2017-08-07T22:22:39.535Z,16.30
2017-08-07T22:25:05.954Z,16.30
2017-08-07T22:27:32.382Z,16.30
2017-08-07T22:29:59.194Z,16.20
2017-08-07T22:32:25.540Z,16.20
2017-08-07T22:34:51.955Z,16.10
2017-08-07T22:37:18.363Z,16.10
2017-08-07T22:39:45.488Z,16.00
2017-08-07T22:42:12.088Z,16.00
2017-08-07T22:44:38.502Z,16.00
2017-08-07T22:47:05.229Z,16.00
2017-08-07T22:49:32.702Z,16.00
2017-08-07T22:51:59.120Z,15.90
2017-08-07T22:54:25.484Z,16.00
2017-08-07T22:56:51.899Z,15.90
2017-08-07T22:59:18.332Z,15.90
2017-08-07T23:01:44.678Z,15.90
2017-08-07T23:04:11.078Z,15.90
2017-08-07T23:06:37.470Z,15.80
2017-08-07T23:09:03.891Z,15.80
2017-08-07T23:11:30.276Z,15.70
2017-08-07T23:13:56.620Z,15.70
2017-08-07T23:16:23.317Z,15.80
2017-08-07T23:18:50.454Z,15.80
2017-08-07T23:21:16.719Z,15.70
2017-08-07T23:23:43.135Z,15.80
2017-08-07T23:26:09.503Z,15.80
2017-08-07T23:28:35.932Z,15.80
2017-08-07T23:31:02.337Z,15.80
2017-08-07T23:33:28.788Z,15.70
2017-08-07T23:35:55.148Z,15.80
2017-08-07T23:38:21.836Z,15.80
2017-08-07T23:40:48.196Z,15.80
2017-08-07T23:43:14.593Z,15.70
2017-08-07T23:45:40.952Z,15.70
2017-08-07T23:48:07.361Z,15.70
2017-08-07T23:50:33.758Z,15.60
2017-08-07T23:53:00.842Z,15.60
2017-08-07T23:55:27.295Z,15.60
2017-08-07T23:57:53.727Z,15.60
